Time;durP1;ratioP1;P1;durP2;ratioP2;P2;SDS_P1;SDS_P2;PMS_P1;PMS_P2;Temp;Humidity;BMP_temperature;BMP_pressure;BME280_temperature;BME280_humidity;BME280_pressure;Samples;Min_cycle;Max_cycle;Signal;HPM_P1;HPM_P2
2023/04/26 00:02:23;;;;;;;8.10;6.87;;;9.80;99.90;;;;;;5053800;28;20813;-73
2023/04/26 00:04:54;;;;;;;8.50;7.03;;;9.70;99.90;;;;;;5055560;28;20173;-73
2023/04/26 00:07:23;;;;;;;7.83;6.53;;;9.40;99.90;;;;;;5056017;28;20560;-73
2023/04/26 00:09:49;;;;;;;7.27;6.20;;;9.30;99.90;;;;;;5056302;28;20442;-73
2023/04/26 00:12:15;;;;;;;7.10;5.93;;;9.20;99.90;;;;;;5056651;28;20408;-73
2023/04/26 00:14:41;;;;;;;9.10;5.90;;;9.20;99.90;;;;;;5057281;28;20597;-73
2023/04/26 00:17:06;;;;;;;7.10;6.40;;;9.40;99.90;;;;;;5054607;28;20174;-71
2023/04/26 00:19:32;;;;;;;7.00;6.40;;;9.40;99.90;;;;;;5056048;28;20196;-73
2023/04/26 00:21:57;;;;;;;7.00;6.33;;;9.50;99.90;;;;;;5054925;28;20237;-74
2023/04/26 00:24:23;;;;;;;6.90;6.20;;;9.50;99.90;;;;;;5055023;28;20177;-74
2023/04/26 00:26:48;;;;;;;7.07;5.90;;;9.50;99.90;;;;;;5056284;28;20670;-75
2023/04/26 00:29:14;;;;;;;7.17;5.97;;;9.60;99.90;;;;;;5056753;28;20182;-75
2023/04/26 00:31:40;;;;;;;6.50;5.77;;;9.60;99.90;;;;;;5056642;28;20162;-74
2023/04/26 00:34:05;;;;;;;8.13;6.07;;;9.50;99.90;;;;;;5055588;28;20201;-73
2023/04/26 00:36:31;;;;;;;8.80;6.93;;;9.40;99.90;;;;;;5056182;28;20174;-74
2023/04/26 00:38:57;;;;;;;7.27;6.50;;;9.50;99.90;;;;;;5055235;28;20201;-74
2023/04/26 00:41:23;;;;;;;9.60;7.00;;;9.50;99.90;;;;;;5054586;28;20201;-74
2023/04/26 00:43:48;;;;;;;6.97;5.70;;;9.50;99.90;;;;;;5056178;28;20186;-74
2023/04/26 00:46:14;;;;;;;14.83;6.60;;;9.40;99.90;;;;;;5055993;28;20408;-74
2023/04/26 00:48:41;;;;;;;7.23;6.07;;;9.40;99.90;;;;;;5055599;28;20184;-73
2023/04/26 00:51:06;;;;;;;5.90;5.33;;;9.30;99.90;;;;;;5056390;28;20163;-74
2023/04/26 00:53:35;;;;;;;7.53;6.70;;;9.50;99.90;;;;;;5054762;28;20412;-74
2023/04/26 00:56:01;;;;;;;7.50;5.50;;;9.50;99.90;;;;;;5056120;28;20537;-74
2023/04/26 00:58:27;;;;;;;6.93;5.83;;;9.40;99.90;;;;;;5055735;28;20462;-74
2023/04/26 01:00:53;;;;;;;7.63;6.67;;;9.50;99.90;;;;;;5055656;28;20475;-74
2023/04/26 01:03:18;;;;;;;7.60;5.97;;;9.50;99.90;;;;;;5053845;28;20557;-74
2023/04/26 01:05:45;;;;;;;7.60;5.83;;;9.30;99.90;;;;;;5054379;28;20177;-74
2023/04/26 01:08:11;;;;;;;12.43;7.10;;;9.20;99.90;;;;;;5056308;28;20190;-74
2023/04/26 01:10:38;;;;;;;13.50;6.97;;;9.10;99.90;;;;;;5055698;28;20466;-74
2023/04/26 01:13:04;;;;;;;7.10;5.80;;;9.00;99.90;;;;;;5056082;28;20480;-73
2023/04/26 01:15:31;;;;;;;5.50;5.00;;;8.90;99.90;;;;;;5056186;28;20409;-74
2023/04/26 01:17:57;;;;;;;11.10;6.50;;;8.90;99.90;;;;;;5055717;28;20436;-74
2023/04/26 01:20:24;;;;;;;8.53;6.27;;;9.00;99.90;;;;;;5057607;28;20455;-74
2023/04/26 01:22:50;;;;;;;7.07;5.30;;;9.10;99.90;;;;;;5058099;28;20162;-74
2023/04/26 01:25:17;;;;;;;7.07;5.77;;;9.20;99.90;;;;;;5055758;28;20444;-74
2023/04/26 01:27:42;;;;;;;7.10;5.27;;;9.10;99.90;;;;;;5056610;28;20452;-74
2023/04/26 01:30:09;;;;;;;9.60;5.10;;;9.10;99.90;;;;;;5056415;28;20429;-74
2023/04/26 01:32:34;;;;;;;7.60;6.10;;;8.90;99.90;;;;;;5055183;28;20538;-74
2023/04/26 01:35:00;;;;;;;7.97;5.93;;;8.90;99.90;;;;;;5055236;28;20408;-75
2023/04/26 01:37:26;;;;;;;8.80;5.43;;;8.80;99.90;;;;;;5054751;28;20556;-74
2023/04/26 01:39:51;;;;;;;8.60;5.80;;;8.90;99.90;;;;;;5054088;28;20535;-74
2023/04/26 01:42:17;;;;;;;10.17;5.10;;;8.90;99.90;;;;;;5054752;28;20168;-74
2023/04/26 01:44:43;;;;;;;7.03;5.27;;;8.80;99.90;;;;;;5055368;28;20639;-73
2023/04/26 01:47:08;;;;;;;7.23;5.23;;;8.70;99.90;;;;;;5054547;28;20163;-74
2023/04/26 01:49:34;;;;;;;7.73;6.00;;;8.70;99.90;;;;;;5054440;28;20285;-73
2023/04/26 01:52:00;;;;;;;7.87;6.30;;;8.80;99.90;;;;;;5054724;28;20161;-74
2023/04/26 01:54:26;;;;;;;6.70;6.00;;;8.70;99.90;;;;;;5054587;28;20416;-74
2023/04/26 01:56:51;;;;;;;9.23;6.53;;;8.80;99.90;;;;;;5054065;28;20181;-74
2023/04/26 01:59:17;;;;;;;9.93;5.83;;;8.70;99.90;;;;;;5054045;28;20201;-74
2023/04/26 02:01:43;;;;;;;9.10;5.80;;;8.60;99.90;;;;;;5053225;28;20161;-74
2023/04/26 02:04:09;;;;;;;6.07;5.13;;;8.70;99.90;;;;;;5048918;28;20175;-73
2023/04/26 02:06:35;;;;;;;7.53;6.00;;;8.60;99.90;;;;;;5034594;28;20174;-74
2023/04/26 02:09:00;;;;;;;8.87;6.03;;;8.40;99.90;;;;;;5032927;28;20434;-74
2023/04/26 02:11:26;;;;;;;8.23;6.57;;;8.30;99.90;;;;;;5034014;28;20904;-74
2023/04/26 02:13:52;;;;;;;9.43;5.60;;;8.40;99.90;;;;;;5032654;28;20311;-74
2023/04/26 02:16:18;;;;;;;7.60;6.37;;;8.50;99.90;;;;;;5033900;28;20172;-74
2023/04/26 02:18:44;;;;;;;7.50;6.60;;;8.40;99.90;;;;;;5033110;28;20815;-74
2023/04/26 02:21:12;;;;;;;8.13;5.50;;;8.40;99.90;;;;;;5033852;28;20193;-74
2023/04/26 02:23:37;;;;;;;9.70;5.60;;;8.40;99.90;;;;;;5033706;28;20161;-73
2023/04/26 02:26:03;;;;;;;9.93;5.57;;;8.10;99.90;;;;;;5033918;28;20468;-74
2023/04/26 02:28:30;;;;;;;11.40;5.50;;;8.10;99.90;;;;;;5049036;28;20201;-73
2023/04/26 02:30:55;;;;;;;8.93;5.63;;;8.00;99.90;;;;;;5053803;28;20637;-69
2023/04/26 02:33:21;;;;;;;10.90;4.90;;;8.00;99.90;;;;;;5051353;28;20436;-72
2023/04/26 02:35:47;;;;;;;5.43;4.93;;;7.90;99.90;;;;;;5052154;28;20240;-72
2023/04/26 02:38:13;;;;;;;6.67;5.23;;;8.00;99.90;;;;;;5053321;28;20953;-71
2023/04/26 02:40:38;;;;;;;6.83;5.20;;;7.90;99.90;;;;;;5053006;28;20232;-70
2023/04/26 02:43:04;;;;;;;7.57;6.43;;;7.80;99.90;;;;;;5052971;28;20172;-72
2023/04/26 02:45:29;;;;;;;7.10;5.80;;;7.80;99.90;;;;;;5053051;28;20171;-72
2023/04/26 02:47:55;;;;;;;7.70;5.70;;;7.70;99.90;;;;;;5052864;28;20237;-72
2023/04/26 02:50:21;;;;;;;10.00;6.70;;;7.60;99.90;;;;;;5052479;28;20182;-72
2023/04/26 02:52:46;;;;;;;10.60;6.17;;;7.70;99.90;;;;;;5053038;28;20176;-71
2023/04/26 02:55:13;;;;;;;8.17;5.50;;;7.70;99.90;;;;;;5051925;28;20182;-72
2023/04/26 02:57:38;;;;;;;6.67;5.57;;;7.60;99.90;;;;;;5053137;28;20238;-71
2023/04/26 03:00:04;;;;;;;8.50;6.20;;;7.70;99.90;;;;;;5053301;28;20453;-72
2023/04/26 03:02:30;;;;;;;6.97;6.27;;;7.80;99.90;;;;;;5052827;28;20165;-71
2023/04/26 03:04:56;;;;;;;7.07;6.30;;;7.80;99.90;;;;;;5052551;28;20744;-71
2023/04/26 03:07:21;;;;;;;6.53;5.20;;;7.80;99.90;;;;;;5053379;28;20213;-71
2023/04/26 03:09:47;;;;;;;7.03;6.33;;;7.90;99.90;;;;;;5052920;28;20217;-72
2023/04/26 03:12:12;;;;;;;9.43;6.73;;;7.90;99.90;;;;;;5052474;28;20237;-72
2023/04/26 03:14:38;;;;;;;8.40;6.90;;;7.80;99.90;;;;;;5052642;28;20246;-72
2023/04/26 03:17:04;;;;;;;9.10;6.77;;;7.70;99.90;;;;;;5052440;28;20231;-72
2023/04/26 03:19:29;;;;;;;9.03;6.17;;;7.70;99.90;;;;;;5052170;28;20255;-72
2023/04/26 03:21:55;;;;;;;7.83;6.07;;;7.70;99.90;;;;;;5052761;28;20159;-72
2023/04/26 03:24:21;;;;;;;10.60;6.10;;;7.70;99.90;;;;;;5053050;28;20596;-72
2023/04/26 03:26:47;;;;;;;7.97;6.33;;;7.60;99.90;;;;;;5051445;28;20406;-71
2023/04/26 03:29:13;;;;;;;9.50;7.27;;;7.60;99.90;;;;;;5052576;28;20441;-72
2023/04/26 03:31:38;;;;;;;9.27;7.73;;;7.60;99.90;;;;;;5051307;28;20167;-72
2023/04/26 03:34:05;;;;;;;8.17;6.77;;;7.60;99.90;;;;;;5052325;28;20211;-71
2023/04/26 03:36:30;;;;;;;7.63;6.30;;;7.70;99.90;;;;;;5053153;28;20160;-72
2023/04/26 03:38:56;;;;;;;8.93;7.03;;;7.70;99.90;;;;;;5052911;28;20919;-72
2023/04/26 03:41:22;;;;;;;7.43;6.63;;;7.70;99.90;;;;;;5052746;28;20193;-72
2023/04/26 03:43:48;;;;;;;9.63;7.07;;;7.70;99.90;;;;;;5052970;28;20648;-72
2023/04/26 03:46:14;;;;;;;7.90;7.10;;;7.50;99.90;;;;;;5052927;28;20405;-72
2023/04/26 03:48:40;;;;;;;12.07;8.10;;;7.50;99.90;;;;;;5051828;28;20502;-72
2023/04/26 03:51:06;;;;;;;13.30;9.37;;;7.40;99.90;;;;;;5053129;28;20777;-72
2023/04/26 03:53:32;;;;;;;9.53;7.47;;;7.30;99.90;;;;;;5053145;28;20519;-71
2023/04/26 03:55:57;;;;;;;15.20;8.90;;;7.30;99.90;;;;;;5053039;28;20652;-72
2023/04/26 03:58:26;;;;;;;13.23;9.73;;;7.20;99.90;;;;;;5052419;28;20425;-72
2023/04/26 04:00:55;;;;;;;10.80;8.40;;;7.10;99.90;;;;;;5051462;28;20225;-71
2023/04/26 04:03:20;;;;;;;10.17;9.00;;;7.00;99.90;;;;;;5046608;28;20772;-71
2023/04/26 04:05:46;;;;;;;10.60;8.97;;;7.00;99.90;;;;;;5037069;28;20490;-72
2023/04/26 04:08:12;;;;;;;12.40;10.60;;;7.00;99.90;;;;;;5036337;28;20187;-72
2023/04/26 04:10:37;;;;;;;14.37;10.07;;;6.90;99.90;;;;;;5036557;28;20176;-72
2023/04/26 04:13:03;;;;;;;13.40;10.60;;;6.80;99.90;;;;;;5035561;28;20178;-71
2023/04/26 04:15:28;;;;;;;13.30;9.70;;;6.80;99.90;;;;;;5036618;28;20302;-72
2023/04/26 04:17:54;;;;;;;14.97;11.37;;;6.70;99.90;;;;;;5036273;28;20232;-72
2023/04/26 04:20:20;;;;;;;13.77;11.90;;;6.70;99.90;;;;;;5035858;28;20198;-71
2023/04/26 04:22:46;;;;;;;13.40;11.43;;;6.70;99.90;;;;;;5036306;28;20167;-71
2023/04/26 04:25:12;;;;;;;14.07;12.33;;;6.70;99.90;;;;;;5052278;28;20182;-72
2023/04/26 04:27:41;;;;;;;17.87;13.00;;;6.70;99.90;;;;;;5056115;28;20187;-72
2023/04/26 04:30:07;;;;;;;17.33;12.90;;;6.70;99.90;;;;;;5056213;28;20437;-72
2023/04/26 04:32:38;;;;;;;16.80;12.70;;;6.60;99.90;;;;;;5056090;28;20406;-71
2023/04/26 04:35:04;;;;;;;18.90;14.40;;;6.70;99.90;;;;;;5056258;28;20417;-71
2023/04/26 04:37:32;;;;;;;17.20;13.93;;;6.70;99.90;;;;;;5055559;28;20443;-70
2023/04/26 04:39:58;;;;;;;14.97;13.30;;;6.70;99.90;;;;;;5056195;28;20448;-72
2023/04/26 04:42:26;;;;;;;14.77;12.93;;;6.70;99.90;;;;;;5055964;28;20417;-72
2023/04/26 04:44:51;;;;;;;17.23;13.50;;;6.80;99.90;;;;;;5056171;28;20413;-72
2023/04/26 04:47:17;;;;;;;21.00;16.27;;;6.80;99.90;;;;;;5056425;28;20440;-72
2023/04/26 04:49:43;;;;;;;19.30;16.37;;;6.70;99.90;;;;;;5055103;28;20414;-72
2023/04/26 04:52:08;;;;;;;21.90;16.20;;;6.70;99.90;;;;;;5056222;28;20596;-72
2023/04/26 04:54:34;;;;;;;17.97;14.57;;;6.70;99.90;;;;;;5055765;28;20247;-72
2023/04/26 04:57:00;;;;;;;19.63;15.00;;;6.80;99.90;;;;;;5055558;28;20181;-71
2023/04/26 04:59:26;;;;;;;16.07;12.50;;;6.80;99.90;;;;;;5055720;28;20219;-72
2023/04/26 05:01:51;;;;;;;17.10;14.33;;;6.90;99.90;;;;;;5055845;28;20492;-72
2023/04/26 05:04:17;;;;;;;18.23;13.70;;;7.00;99.90;;;;;;5054753;28;20502;-72
2023/04/26 05:06:42;;;;;;;15.10;13.50;;;7.00;99.90;;;;;;5055428;28;20176;-72
2023/04/26 05:09:09;;;;;;;18.70;14.80;;;7.00;99.90;;;;;;5054380;28;20662;-72
2023/04/26 05:11:34;;;;;;;19.80;15.80;;;7.10;99.90;;;;;;5056435;28;20247;-72
2023/04/26 05:14:00;;;;;;;15.97;13.60;;;7.30;99.90;;;;;;5055373;28;20440;-72
2023/04/26 05:16:26;;;;;;;17.63;13.90;;;7.40;99.90;;;;;;5055771;28;20608;-72
2023/04/26 05:18:52;;;;;;;19.77;15.40;;;7.40;99.90;;;;;;5055621;28;20434;-72
2023/04/26 05:21:18;;;;;;;19.50;15.93;;;7.50;99.90;;;;;;5056058;28;20560;-72
2023/04/26 05:23:44;;;;;;;23.13;16.70;;;7.60;99.90;;;;;;5054764;28;20406;-71
2023/04/26 05:26:15;;;;;;;19.83;15.53;;;7.60;99.90;;;;;;5054901;28;20224;-72
2023/04/26 05:28:41;;;;;;;15.40;13.47;;;7.70;99.90;;;;;;5054489;28;20192;-72
2023/04/26 05:31:07;;;;;;;17.77;14.57;;;7.80;99.90;;;;;;5054202;28;20548;-71
2023/04/26 05:33:33;;;;;;;20.90;17.70;;;7.90;99.90;;;;;;5051592;28;20428;-72
2023/04/26 05:36:00;;;;;;;17.83;14.37;;;7.90;99.90;;;;;;5053008;28;20414;-72
2023/04/26 05:38:25;;;;;;;14.37;12.17;;;7.90;99.90;;;;;;5053608;28;20594;-72
2023/04/26 05:40:51;;;;;;;18.17;13.37;;;8.10;99.90;;;;;;5053393;28;20447;-72
2023/04/26 05:43:17;;;;;;;16.63;14.00;;;8.20;99.90;;;;;;5053872;28;20173;-71
2023/04/26 05:45:52;;;;;;;17.70;14.30;;;8.30;99.90;;;;;;5054266;28;20628;-72
2023/04/26 05:48:23;;;;;;;16.03;13.57;;;8.40;99.90;;;;;;5053360;28;20222;-71
2023/04/26 05:50:49;;;;;;;15.50;13.53;;;8.40;99.90;;;;;;5054046;28;20394;-72
2023/04/26 05:53:15;;;;;;;30.27;18.70;;;8.50;99.90;;;;;;5034238;28;20455;-70
2023/04/26 05:55:42;;;;;;;25.90;16.40;;;8.60;99.90;;;;;;5033026;28;20832;-72
2023/04/26 05:58:08;;;;;;;19.23;14.80;;;8.80;99.90;;;;;;5033619;28;20523;-71
2023/04/26 06:00:34;;;;;;;21.80;15.13;;;8.90;99.90;;;;;;5034561;28;20540;-71
2023/04/26 06:03:00;;;;;;;22.63;15.87;;;8.90;99.90;;;;;;5048749;28;20468;-71
2023/04/26 06:05:25;;;;;;;16.70;13.80;;;9.00;99.90;;;;;;5033691;28;20403;-71
2023/04/26 06:07:52;;;;;;;54.27;31.40;;;8.90;99.90;;;;;;5033397;28;20252;-71
2023/04/26 06:10:18;;;;;;;23.40;18.77;;;9.00;99.90;;;;;;5033612;28;20187;-71
2023/04/26 06:12:44;;;;;;;16.30;13.80;;;9.40;99.90;;;;;;5033259;28;20913;-71
2023/04/26 06:15:10;;;;;;;17.27;12.20;;;9.70;99.90;;;;;;5032118;28;20284;-71
2023/04/26 06:17:36;;;;;;;15.70;14.10;;;9.80;99.90;;;;;;5033204;28;20436;-71
2023/04/26 06:20:04;;;;;;;15.43;13.10;;;9.70;99.90;;;;;;5033156;28;20771;-71
2023/04/26 06:22:30;;;;;;;14.27;11.30;;;9.50;99.90;;;;;;5033096;28;20172;-72
2023/04/26 06:24:55;;;;;;;11.50;9.67;;;9.50;99.90;;;;;;5032570;28;20784;-72
2023/04/26 06:27:21;;;;;;;11.73;10.53;;;8.90;99.90;;;;;;5052673;28;20204;-71
2023/04/26 06:29:47;;;;;;;13.67;11.70;;;8.60;99.90;;;;;;5052831;28;20182;-71
2023/04/26 06:32:12;;;;;;;18.93;13.10;;;8.80;99.90;;;;;;5052916;28;20167;-71
2023/04/26 06:34:38;;;;;;;17.43;12.90;;;9.00;99.90;;;;;;5052720;28;20412;-71
2023/04/26 06:37:04;;;;;;;14.40;11.40;;;9.10;99.90;;;;;;5053237;28;20185;-71
2023/04/26 06:39:30;;;;;;;13.23;11.00;;;9.30;99.90;;;;;;5054364;28;20196;-74
2023/04/26 06:41:55;;;;;;;13.63;10.27;;;8.80;99.90;;;;;;5054220;28;20419;-73
2023/04/26 06:44:21;;;;;;;12.70;9.97;;;8.50;99.90;;;;;;5053546;28;20235;-72
2023/04/26 06:46:48;;;;;;;10.73;9.73;;;8.60;99.90;;;;;;5053869;28;20197;-72
2023/04/26 06:49:13;;;;;;;12.93;11.30;;;8.90;99.90;;;;;;5051745;28;20197;-72
2023/04/26 06:51:40;;;;;;;15.10;12.10;;;9.20;99.90;;;;;;5053519;28;20406;-74
2023/04/26 06:54:05;;;;;;;13.30;11.90;;;9.60;99.90;;;;;;5053756;28;20515;-75
2023/04/26 06:56:31;;;;;;;14.73;12.80;;;9.60;99.90;;;;;;5053268;28;20424;-74
2023/04/26 06:58:59;;;;;;;15.50;12.20;;;9.50;99.90;;;;;;5054153;28;20198;-74
2023/04/26 07:01:27;;;;;;;15.37;11.07;;;9.40;99.90;;;;;;5054406;28;20611;-74
2023/04/26 07:03:56;;;;;;;15.00;11.30;;;9.60;99.90;;;;;;5053816;28;20934;-73
2023/04/26 07:06:23;;;;;;;12.00;10.73;;;9.70;99.90;;;;;;5053814;28;20410;-72
2023/04/26 07:08:49;;;;;;;13.70;10.10;;;9.70;99.90;;;;;;5052832;28;20428;-72
2023/04/26 07:11:14;;;;;;;12.80;9.47;;;9.40;99.90;;;;;;5053071;28;20405;-72
2023/04/26 07:13:40;;;;;;;12.30;8.10;;;9.60;99.90;;;;;;5053069;28;20175;-72
2023/04/26 07:16:06;;;;;;;10.00;6.97;;;9.50;99.90;;;;;;5053181;28;20172;-72
2023/04/26 07:18:31;;;;;;;9.83;8.00;;;9.70;99.90;;;;;;5052716;28;20193;-72
2023/04/26 07:20:57;;;;;;;8.40;6.43;;;9.90;99.90;;;;;;5051787;28;20197;-71
2023/04/26 07:23:22;;;;;;;8.87;6.37;;;10.00;99.90;;;;;;5052770;28;20177;-71
2023/04/26 07:25:48;;;;;;;8.73;4.90;;;10.20;99.90;;;;;;5053143;28;20252;-72
2023/04/26 07:28:14;;;;;;;12.73;5.53;;;9.90;99.90;;;;;;5051291;28;20187;-73
2023/04/26 07:30:40;;;;;;;9.93;6.80;;;9.80;99.90;;;;;;5053240;28;20177;-73
2023/04/26 07:33:06;;;;;;;8.97;6.30;;;9.90;99.90;;;;;;5052617;28;20638;-72
2023/04/26 07:35:34;;;;;;;10.80;8.10;;;9.80;99.90;;;;;;5052827;28;20473;-72
2023/04/26 07:37:59;;;;;;;10.80;7.97;;;9.80;99.90;;;;;;5055298;28;20242;-72
2023/04/26 07:40:25;;;;;;;9.73;7.53;;;9.90;99.90;;;;;;5057159;28;20484;-72
2023/04/26 07:42:52;;;;;;;9.13;7.17;;;9.90;99.90;;;;;;5057064;28;20178;-72
2023/04/26 07:45:18;;;;;;;10.43;7.87;;;9.40;99.90;;;;;;5057399;28;20231;-72
2023/04/26 07:47:44;;;;;;;11.87;7.37;;;9.20;99.90;;;;;;5056786;28;20832;-73
2023/04/26 07:50:10;;;;;;;11.60;7.40;;;9.40;99.90;;;;;;5056251;28;20899;-71
2023/04/26 07:52:36;;;;;;;11.10;8.10;;;9.70;99.90;;;;;;5056885;28;20235;-72
2023/04/26 07:55:01;;;;;;;17.73;9.37;;;9.90;99.90;;;;;;5057293;28;20903;-73
2023/04/26 07:57:27;;;;;;;8.80;7.20;;;10.10;99.90;;;;;;5057412;28;20569;-73
2023/04/26 07:59:53;;;;;;;8.07;6.57;;;10.40;99.90;;;;;;5057989;28;20190;-73
2023/04/26 08:02:18;;;;;;;6.90;5.80;;;10.60;99.90;;;;;;5057352;28;20657;-72
2023/04/26 08:04:51;;;;;;;8.90;7.30;;;10.50;99.90;;;;;;5055922;28;20181;-72
2023/04/26 08:07:18;;;;;;;7.60;6.30;;;10.20;99.90;;;;;;5056788;28;20209;-72
2023/04/26 08:09:43;;;;;;;10.57;7.17;;;10.10;99.90;;;;;;5055542;28;20414;-73
2023/04/26 08:12:10;;;;;;;9.90;6.60;;;10.20;99.90;;;;;;5056745;28;20912;-72
2023/04/26 08:14:37;;;;;;;9.70;6.73;;;10.40;99.90;;;;;;5056344;28;20588;-73
2023/04/26 08:17:03;;;;;;;8.20;6.03;;;10.40;99.90;;;;;;5056370;28;20415;-72
2023/04/26 08:19:31;;;;;;;7.80;6.47;;;10.60;99.90;;;;;;5056001;28;20409;-73
2023/04/26 08:21:57;;;;;;;8.20;6.87;;;10.40;99.90;;;;;;5056626;28;20421;-73
2023/04/26 08:24:22;;;;;;;9.23;6.13;;;10.60;99.90;;;;;;5056680;28;20427;-73
2023/04/26 08:26:48;;;;;;;12.97;7.03;;;10.80;99.90;;;;;;5056507;28;20167;-73
2023/04/26 08:29:14;;;;;;;8.60;6.43;;;11.30;99.90;;;;;;5055427;28;20214;-73
2023/04/26 08:31:40;;;;;;;8.63;6.40;;;11.20;99.90;;;;;;5055612;28;20273;-73
2023/04/26 08:34:09;;;;;;;7.87;6.63;;;11.40;99.90;;;;;;5042132;28;20442;-73
2023/04/26 08:36:36;;;;;;;10.97;8.07;;;11.40;99.90;;;;;;5036029;28;20760;-73
2023/04/26 08:39:01;;;;;;;9.87;5.80;;;11.90;99.90;;;;;;5035863;28;20451;-72
2023/04/26 08:41:29;;;;;;;5.30;4.77;;;11.90;99.90;;;;;;5035850;28;20452;-73
2023/04/26 08:43:57;;;;;;;10.30;6.30;;;11.70;99.90;;;;;;5035932;28;20170;-72
2023/04/26 08:46:25;;;;;;;9.00;6.23;;;12.10;99.90;;;;;;5036790;28;20405;-73
2023/04/26 08:49:08;;;;;;;7.87;5.80;;;12.40;99.90;;;;;;5037615;28;20815;-73
2023/04/26 08:51:36;;;;;;;6.67;5.80;;;12.20;99.90;;;;;;5038360;28;20489;-73
2023/04/26 08:54:03;;;;;;;8.93;6.80;;;11.90;99.90;;;;;;5037535;28;20454;-72
2023/04/26 08:56:30;;;;;;;7.80;6.60;;;11.80;99.90;;;;;;5037564;28;20882;-72
2023/04/26 08:58:57;;;;;;;11.20;6.40;;;11.80;99.90;;;;;;5036588;28;20481;-73
2023/04/26 09:01:25;;;;;;;7.97;6.20;;;12.20;99.90;;;;;;5037313;28;20445;-72
2023/04/26 09:03:51;;;;;;;9.70;6.70;;;12.20;99.80;;;;;;5036046;28;20518;-73
2023/04/26 09:06:18;;;;;;;9.97;6.83;;;12.20;99.90;;;;;;5037180;28;20398;-73
2023/04/26 09:08:44;;;;;;;6.80;6.13;;;12.20;99.90;;;;;;5036310;28;20428;-74
2023/04/26 09:11:10;;;;;;;7.97;6.00;;;12.50;99.90;;;;;;5035250;28;20510;-73
2023/04/26 09:13:36;;;;;;;6.00;5.13;;;12.60;99.90;;;;;;5036538;28;20441;-73
2023/04/26 09:16:01;;;;;;;11.20;7.20;;;12.50;99.70;;;;;;5035981;28;20169;-72
2023/04/26 09:18:27;;;;;;;11.63;6.13;;;12.70;99.90;;;;;;5035443;28;20189;-73
2023/04/26 09:21:04;;;;;;;7.50;6.10;;;12.90;99.90;;;;;;5035056;28;20211;-73
2023/04/26 09:23:31;;;;;;;7.17;6.10;;;13.10;99.80;;;;;;5035361;28;20199;-73
2023/04/26 09:26:14;;;;;;;8.27;5.63;;;12.90;98.60;;;;;;5036216;28;20404;-73
2023/04/26 09:28:41;;;;;;;7.17;5.47;;;12.60;98.50;;;;;;5036263;28;20444;-73
2023/04/26 09:31:07;;;;;;;7.20;5.60;;;12.20;98.70;;;;;;5036043;28;20399;-73
2023/04/26 09:33:32;;;;;;;7.00;4.83;;;12.50;99.90;;;;;;5044215;28;20411;-73
2023/04/26 09:36:12;;;;;;;8.67;5.97;;;12.60;99.90;;;;;;5054787;28;20652;-73
2023/04/26 09:38:42;;;;;;;7.97;5.83;;;12.50;98.70;;;;;;5053814;28;20742;-73
2023/04/26 09:41:07;;;;;;;6.10;5.50;;;12.20;98.90;;;;;;5055940;28;20479;-73
2023/04/26 09:43:36;;;;;;;8.63;5.77;;;12.50;98.20;;;;;;5056799;28;20489;-73
2023/04/26 09:46:02;;;;;;;7.77;5.53;;;12.60;98.00;;;;;;5056600;28;20258;-73
2023/04/26 09:48:30;;;;;;;10.73;5.60;;;12.50;98.30;;;;;;5057285;28;20419;-72
2023/04/26 09:51:03;;;;;;;8.40;5.70;;;12.90;97.90;;;;;;5059505;28;20542;-72
2023/04/26 09:53:30;;;;;;;8.60;6.33;;;13.00;97.80;;;;;;5058364;28;20474;-73
2023/04/26 09:55:57;;;;;;;9.67;6.30;;;13.00;97.90;;;;;;5056172;28;20429;-73
2023/04/26 09:58:22;;;;;;;8.70;6.27;;;13.10;98.30;;;;;;5055644;28;20429;-73
2023/04/26 10:00:50;;;;;;;7.63;6.83;;;13.20;98.60;;;;;;5053437;28;20440;-73
2023/04/26 10:03:19;;;;;;;9.70;6.47;;;13.20;98.40;;;;;;5050935;28;20177;-73
2023/04/26 10:05:46;;;;;;;7.83;6.33;;;13.10;98.60;;;;;;5053531;28;20401;-73
2023/04/26 10:08:12;;;;;;;8.10;7.20;;;13.30;98.20;;;;;;5052199;28;20514;-72
2023/04/26 10:10:38;;;;;;;7.70;6.83;;;13.40;96.60;;;;;;5053400;28;20454;-73
2023/04/26 10:13:05;;;;;;;8.20;6.80;;;13.50;96.50;;;;;;5053423;28;20249;-73
2023/04/26 10:15:31;;;;;;;8.63;6.07;;;13.70;96.70;;;;;;5052969;28;20524;-73
2023/04/26 10:17:57;;;;;;;7.27;5.70;;;14.10;96.80;;;;;;5054285;28;20527;-73
2023/04/26 10:20:25;;;;;;;9.40;6.27;;;14.50;95.90;;;;;;5052508;28;20665;-73
2023/04/26 10:22:59;;;;;;;12.77;7.60;;;14.40;96.60;;;;;;5053628;28;20195;-73
2023/04/26 10:25:37;;;;;;;8.03;6.57;;;13.80;95.40;;;;;;5053324;28;20396;-73
2023/04/26 10:28:04;;;;;;;7.77;5.97;;;13.30;96.00;;;;;;5054568;28;20498;-73
2023/04/26 10:30:31;;;;;;;11.37;6.87;;;13.30;96.30;;;;;;5054503;28;20787;-73
2023/04/26 10:32:56;;;;;;;7.30;5.57;;;13.20;96.00;;;;;;5053125;28;20406;-73
2023/04/26 10:35:23;;;;;;;7.70;6.30;;;13.40;96.00;;;;;;5052983;28;20416;-74
2023/04/26 10:37:58;;;;;;;6.50;5.90;;;13.80;96.20;;;;;;5053508;28;20284;-73
2023/04/26 10:40:31;;;;;;;6.07;5.43;;;13.60;95.20;;;;;;5054161;28;20540;-73
2023/04/26 10:43:13;;;;;;;7.73;5.77;;;14.10;95.40;;;;;;5051842;28;20447;-73
2023/04/26 10:45:40;;;;;;;9.83;6.47;;;14.30;94.40;;;;;;5051375;28;20490;-73
2023/04/26 10:48:29;;;;;;;7.47;6.07;;;14.00;94.80;;;;;;5052544;28;20417;-71
2023/04/26 10:51:00;;;;;;;7.90;5.80;;;14.00;95.10;;;;;;5050696;28;20404;-72
2023/04/26 10:53:52;;;;;;;10.07;7.50;;;13.90;95.50;;;;;;5052897;28;20400;-72
2023/04/26 10:56:30;;;;;;;6.47;5.60;;;13.10;96.00;;;;;;5051164;28;20402;-73
2023/04/26 10:59:10;;;;;;;8.30;6.13;;;13.00;96.20;;;;;;5050875;28;20412;-73
2023/04/26 11:01:36;;;;;;;7.90;6.80;;;13.10;96.30;;;;;;5050748;28;20436;-73
2023/04/26 11:04:10;;;;;;;7.90;5.67;;;13.10;96.30;;;;;;5051886;28;20397;-72
2023/04/26 11:06:53;;;;;;;10.40;5.80;;;13.60;95.60;;;;;;5050815;28;20414;-73
2023/04/26 11:09:36;;;;;;;7.10;5.93;;;14.20;94.70;;;;;;5050807;28;20397;-73
2023/04/26 11:12:06;;;;;;;7.47;5.20;;;14.40;93.80;;;;;;5054396;28;20433;-72
2023/04/26 11:14:35;;;;;;;6.90;5.43;;;14.30;93.90;;;;;;5054566;28;20409;-73
2023/04/26 11:17:08;;;;;;;9.83;5.83;;;14.90;93.20;;;;;;5057092;28;20432;-73
2023/04/26 11:19:34;;;;;;;6.97;5.50;;;15.30;93.60;;;;;;5054333;28;20397;-73
2023/04/26 11:22:00;;;;;;;5.90;4.87;;;15.30;91.70;;;;;;5056919;28;20510;-73
2023/04/26 11:24:27;;;;;;;9.47;5.60;;;15.00;92.20;;;;;;5055520;28;20897;-73
2023/04/26 11:26:53;;;;;;;6.00;5.40;;;14.70;92.20;;;;;;5056236;28;20405;-72
2023/04/26 11:29:20;;;;;;;7.90;6.13;;;14.10;92.50;;;;;;5056826;28;20421;-73
2023/04/26 11:31:55;;;;;;;6.70;6.00;;;13.90;94.50;;;;;;5056582;28;20253;-73
2023/04/26 11:34:31;;;;;;;9.70;5.53;;;14.30;94.50;;;;;;5052973;28;20429;-73
2023/04/26 11:36:57;;;;;;;7.93;5.80;;;14.60;92.40;;;;;;5054953;28;20819;-73
2023/04/26 11:39:22;;;;;;;7.47;5.40;;;15.50;91.40;;;;;;5056538;28;20430;-73
2023/04/26 11:41:48;;;;;;;8.53;5.90;;;16.00;90.40;;;;;;5055947;28;20194;-74
2023/04/26 11:44:19;;;;;;;7.60;5.33;;;15.90;89.00;;;;;;5057096;28;20587;-73
2023/04/26 11:46:47;;;;;;;7.63;4.87;;;15.50;89.30;;;;;;5056688;28;20174;-73
2023/04/26 11:49:13;;;;;;;6.70;5.47;;;16.30;87.40;;;;;;5055901;28;20421;-73
2023/04/26 11:51:39;;;;;;;9.30;6.03;;;17.40;84.80;;;;;;5054448;28;21001;-73
2023/04/26 11:54:04;;;;;;;7.60;5.70;;;17.80;86.90;;;;;;5051974;28;20417;-73
2023/04/26 11:56:30;;;;;;;6.97;4.80;;;18.30;85.00;;;;;;5036599;28;20719;-73
2023/04/26 11:58:57;;;;;;;5.97;4.87;;;18.70;83.10;;;;;;5036998;28;20223;-73
2023/04/26 12:01:26;;;;;;;7.70;4.97;;;18.90;78.10;;;;;;5051995;28;20182;-73
2023/04/26 12:03:54;;;;;;;7.53;5.10;;;18.60;78.60;;;;;;5045175;28;20452;-73
2023/04/26 12:06:24;;;;;;;6.87;4.63;;;18.60;76.80;;;;;;5045570;28;20786;-73
2023/04/26 12:08:50;;;;;;;6.10;4.90;;;18.50;78.00;;;;;;5056159;28;20941;-72
2023/04/26 12:11:17;;;;;;;7.17;5.20;;;17.80;74.80;;;;;;5055755;28;20467;-73
2023/04/26 12:13:44;;;;;;;6.83;5.33;;;17.10;77.20;;;;;;5056559;28;20474;-72
2023/04/26 12:16:37;;;;;;;6.47;5.87;;;16.60;78.80;;;;;;5056833;28;20401;-73
2023/04/26 12:19:51;;;;;;;6.10;4.70;;;16.70;79.10;;;;;;5051161;28;20470;-73
2023/04/26 12:22:22;;;;;;;5.63;4.37;;;17.00;82.70;;;;;;5057174;28;20378;-73
2023/04/26 12:25:09;;;;;;;8.60;5.20;;;18.40;77.70;;;;;;5056767;28;20420;-73
2023/04/26 12:27:47;;;;;;;6.93;4.23;;;18.60;75.40;;;;;;5054402;28;20429;-74
2023/04/26 12:30:15;;;;;;;7.50;4.87;;;18.40;76.00;;;;;;5055360;28;20401;-73
2023/04/26 12:32:48;;;;;;;7.80;5.10;;;18.40;76.70;;;;;;5056829;28;20416;-73
2023/04/26 12:35:18;;;;;;;5.27;4.77;;;17.90;74.60;;;;;;5045774;28;20778;-73
2023/04/26 12:38:08;;;;;;;7.57;4.87;;;17.40;75.00;;;;;;5056264;28;20468;-73
2023/04/26 12:40:50;;;;;;;7.70;5.07;;;17.10;76.10;;;;;;5040959;28;20445;-73
2023/04/26 12:43:22;;;;;;;6.67;5.00;;;17.20;76.80;;;;;;5056436;28;20408;-73
2023/04/26 12:45:53;;;;;;;5.03;3.97;;;18.50;73.90;;;;;;5056405;28;20932;-73
2023/04/26 12:48:48;;;;;;;6.47;4.57;;;18.50;71.20;;;;;;5056312;28;20417;-73
2023/04/26 12:51:32;;;;;;;9.50;5.10;;;18.70;73.90;;;;;;5056462;28;20381;-73